sensor_id;sensor_type;location;lat;lon;timestamp;pressure;altitude;pressure_sealevel;temperature;humidity
20983;BME280;10650;51.528;6.748;2022-08-01T00:00:51;101382.72;;;21.50;87.02
20983;BME280;10650;51.528;6.748;2022-08-01T00:03:18;101389.09;;;21.49;86.73
20983;BME280;10650;51.528;6.748;2022-08-01T00:05:47;101384.50;;;21.51;86.65
20983;BME280;10650;51.528;6.748;2022-08-01T00:08:15;101388.03;;;21.53;86.80
20983;BME280;10650;51.528;6.748;2022-08-01T00:10:44;101384.38;;;21.54;86.62
20983;BME280;10650;51.528;6.748;2022-08-01T00:13:12;101392.53;;;21.54;86.84
20983;BME280;10650;51.528;6.748;2022-08-01T00:15:40;101381.84;;;21.49;86.89
20983;BME280;10650;51.528;6.748;2022-08-01T00:18:19;101389.16;;;21.47;86.97
20983;BME280;10650;51.528;6.748;2022-08-01T00:20:48;101383.72;;;21.47;87.04
20983;BME280;10650;51.528;6.748;2022-08-01T00:23:15;101380.13;;;21.47;87.22
20983;BME280;10650;51.528;6.748;2022-08-01T00:25:45;101386.59;;;21.44;87.22
20983;BME280;10650;51.528;6.748;2022-08-01T00:28:12;101392.91;;;21.44;87.19
20983;BME280;10650;51.528;6.748;2022-08-01T00:30:40;101384.75;;;21.44;87.07
20983;BME280;10650;51.528;6.748;2022-08-01T00:33:08;101388.44;;;21.43;87.09
20983;BME280;10650;51.528;6.748;2022-08-01T00:35:36;101387.66;;;21.40;86.93
20983;BME280;10650;51.528;6.748;2022-08-01T00:38:04;101386.72;;;21.41;87.32
20983;BME280;10650;51.528;6.748;2022-08-01T00:40:32;101390.38;;;21.40;87.02
20983;BME280;10650;51.528;6.748;2022-08-01T00:43:01;101380.34;;;21.42;87.07
20983;BME280;10650;51.528;6.748;2022-08-01T00:45:29;101384.09;;;21.39;87.00
20983;BME280;10650;51.528;6.748;2022-08-01T00:47:57;101379.72;;;21.35;86.82
20983;BME280;10650;51.528;6.748;2022-08-01T00:50:25;101378.03;;;21.33;87.39
20983;BME280;10650;51.528;6.748;2022-08-01T00:52:53;101378.97;;;21.32;87.49
20983;BME280;10650;51.528;6.748;2022-08-01T00:55:22;101383.66;;;21.28;87.33
20983;BME280;10650;51.528;6.748;2022-08-01T00:57:50;101374.69;;;21.26;87.33
20983;BME280;10650;51.528;6.748;2022-08-01T01:00:33;101375.44;;;21.30;87.43
20983;BME280;10650;51.528;6.748;2022-08-01T01:03:20;101385.53;;;21.26;87.41
20983;BME280;10650;51.528;6.748;2022-08-01T01:06:18;101383.75;;;21.26;87.52
20983;BME280;10650;51.528;6.748;2022-08-01T01:09:02;101379.09;;;21.29;87.70
20983;BME280;10650;51.528;6.748;2022-08-01T01:11:39;101388.03;;;21.32;87.83
20983;BME280;10650;51.528;6.748;2022-08-01T01:14:26;101381.03;;;21.26;87.21
20983;BME280;10650;51.528;6.748;2022-08-01T01:16:58;101377.31;;;21.27;87.08
20983;BME280;10650;51.528;6.748;2022-08-01T01:19:30;101379.16;;;21.27;87.13
20983;BME280;10650;51.528;6.748;2022-08-01T01:22:21;101381.03;;;21.26;87.38
20983;BME280;10650;51.528;6.748;2022-08-01T01:25:02;101380.94;;;21.28;87.37
20983;BME280;10650;51.528;6.748;2022-08-01T01:27:42;101378.22;;;21.28;86.94
20983;BME280;10650;51.528;6.748;2022-08-01T01:30:14;101380.00;;;21.29;87.15
20983;BME280;10650;51.528;6.748;2022-08-01T01:32:48;101377.22;;;21.31;87.13
20983;BME280;10650;51.528;6.748;2022-08-01T01:35:21;101386.19;;;21.33;87.25
20983;BME280;10650;51.528;6.748;2022-08-01T01:38:01;101382.59;;;21.32;87.52
20983;BME280;10650;51.528;6.748;2022-08-01T01:40:32;101387.41;;;21.25;87.55
20983;BME280;10650;51.528;6.748;2022-08-01T01:43:01;101391.06;;;21.24;87.54
20983;BME280;10650;51.528;6.748;2022-08-01T01:45:31;101389.31;;;21.23;87.50
20983;BME280;10650;51.528;6.748;2022-08-01T01:48:00;101384.88;;;21.21;87.08
20983;BME280;10650;51.528;6.748;2022-08-01T01:50:29;101387.59;;;21.21;87.39
20983;BME280;10650;51.528;6.748;2022-08-01T01:52:59;101395.69;;;21.22;87.60
20983;BME280;10650;51.528;6.748;2022-08-01T01:55:29;101392.06;;;21.22;87.13
20983;BME280;10650;51.528;6.748;2022-08-01T01:57:59;101387.59;;;21.21;87.32
20983;BME280;10650;51.528;6.748;2022-08-01T02:00:28;101388.47;;;21.21;87.10
20983;BME280;10650;51.528;6.748;2022-08-01T02:02:59;101386.63;;;21.22;87.64
20983;BME280;10650;51.528;6.748;2022-08-01T02:05:28;101386.69;;;21.20;87.68
20983;BME280;10650;51.528;6.748;2022-08-01T02:07:57;101383.19;;;21.18;87.57
20983;BME280;10650;51.528;6.748;2022-08-01T02:10:26;101389.47;;;21.19;87.56
20983;BME280;10650;51.528;6.748;2022-08-01T02:12:56;101389.56;;;21.17;87.56
20983;BME280;10650;51.528;6.748;2022-08-01T02:15:25;101395.88;;;21.18;87.34
20983;BME280;10650;51.528;6.748;2022-08-01T02:17:54;101395.88;;;21.18;87.51
20983;BME280;10650;51.528;6.748;2022-08-01T02:20:27;101386.84;;;21.17;87.58
20983;BME280;10650;51.528;6.748;2022-08-01T02:23:01;101388.69;;;21.17;87.73
20983;BME280;10650;51.528;6.748;2022-08-01T02:25:33;101386.09;;;21.14;88.02
20983;BME280;10650;51.528;6.748;2022-08-01T02:28:25;101388.13;;;21.08;88.43
20983;BME280;10650;51.528;6.748;2022-08-01T02:31:00;101379.09;;;21.08;88.15
20983;BME280;10650;51.528;6.748;2022-08-01T02:33:35;101380.81;;;21.11;88.83
20983;BME280;10650;51.528;6.748;2022-08-01T02:36:06;101387.09;;;21.11;88.83
20983;BME280;10650;51.528;6.748;2022-08-01T02:38:56;101380.88;;;21.09;88.97
20983;BME280;10650;51.528;6.748;2022-08-01T02:41:27;101378.16;;;21.09;88.96
20983;BME280;10650;51.528;6.748;2022-08-01T02:43:59;101390.84;;;21.08;89.28
20983;BME280;10650;51.528;6.748;2022-08-01T02:46:42;101387.75;;;20.96;89.13
20983;BME280;10650;51.528;6.748;2022-08-01T02:49:11;101389.59;;;20.95;89.67
20983;BME280;10650;51.528;6.748;2022-08-01T02:51:43;101386.88;;;20.95;89.59
20983;BME280;10650;51.528;6.748;2022-08-01T02:54:12;101386.94;;;20.94;89.51
20983;BME280;10650;51.528;6.748;2022-08-01T02:56:42;101388.81;;;20.91;89.81
20983;BME280;10650;51.528;6.748;2022-08-01T02:59:15;101386.25;;;20.88;90.09
20983;BME280;10650;51.528;6.748;2022-08-01T03:01:47;101387.19;;;20.87;90.47
20983;BME280;10650;51.528;6.748;2022-08-01T03:04:18;101383.47;;;20.90;90.58
20983;BME280;10650;51.528;6.748;2022-08-01T03:06:49;101383.53;;;20.88;90.50
20983;BME280;10650;51.528;6.748;2022-08-01T03:09:22;101387.13;;;20.89;90.50
20983;BME280;10650;51.528;6.748;2022-08-01T03:11:51;101383.31;;;20.93;90.69
20983;BME280;10650;51.528;6.748;2022-08-01T03:14:20;101382.31;;;20.96;90.26
20983;BME280;10650;51.528;6.748;2022-08-01T03:16:51;101382.47;;;20.92;90.33
20983;BME280;10650;51.528;6.748;2022-08-01T03:19:20;101391.47;;;20.93;90.49
20983;BME280;10650;51.528;6.748;2022-08-01T03:21:52;101396.03;;;20.92;90.40
20983;BME280;10650;51.528;6.748;2022-08-01T03:24:21;101393.31;;;20.92;90.56
20983;BME280;10650;51.528;6.748;2022-08-01T03:26:52;101400.66;;;20.90;90.54
20983;BME280;10650;51.528;6.748;2022-08-01T03:29:24;101396.09;;;20.91;90.71
20983;BME280;10650;51.528;6.748;2022-08-01T03:31:53;101403.25;;;20.94;90.40
20983;BME280;10650;51.528;6.748;2022-08-01T03:34:21;101396.81;;;20.96;90.38
20983;BME280;10650;51.528;6.748;2022-08-01T03:36:55;101395.97;;;20.94;90.44
20983;BME280;10650;51.528;6.748;2022-08-01T03:39:29;101404.06;;;20.96;90.25
20983;BME280;10650;51.528;6.748;2022-08-01T03:42:01;101399.53;;;20.96;90.58
20983;BME280;10650;51.528;6.748;2022-08-01T03:44:32;101396.91;;;20.93;90.65
20983;BME280;10650;51.528;6.748;2022-08-01T03:47:05;101395.09;;;20.94;90.28
20983;BME280;10650;51.528;6.748;2022-08-01T03:49:38;101401.53;;;20.91;90.26
20983;BME280;10650;51.528;6.748;2022-08-01T03:52:09;101400.66;;;20.90;90.49
20983;BME280;10650;51.528;6.748;2022-08-01T03:54:42;101396.97;;;20.91;90.59
20983;BME280;10650;51.528;6.748;2022-08-01T03:57:13;101397.88;;;20.92;90.56
20983;BME280;10650;51.528;6.748;2022-08-01T04:00:04;101397.03;;;20.90;90.69
20983;BME280;10650;51.528;6.748;2022-08-01T04:02:34;101396.09;;;20.91;90.75
20983;BME280;10650;51.528;6.748;2022-08-01T04:05:03;101405.13;;;20.91;90.46
20983;BME280;10650;51.528;6.748;2022-08-01T04:07:33;101395.09;;;20.94;90.28
20983;BME280;10650;51.528;6.748;2022-08-01T04:10:03;101400.47;;;20.95;90.55
20983;BME280;10650;51.528;6.748;2022-08-01T04:12:31;101396.84;;;20.95;90.19
20983;BME280;10650;51.528;6.748;2022-08-01T04:14:59;101401.41;;;20.94;90.51
20983;BME280;10650;51.528;6.748;2022-08-01T04:17:27;101398.88;;;20.89;89.72
20983;BME280;10650;51.528;6.748;2022-08-01T04:19:55;101409.81;;;20.88;90.31
20983;BME280;10650;51.528;6.748;2022-08-01T04:22:23;101415.44;;;20.83;90.30
20983;BME280;10650;51.528;6.748;2022-08-01T04:24:55;101413.78;;;20.79;90.56
20983;BME280;10650;51.528;6.748;2022-08-01T04:27:27;101413.97;;;20.74;90.71
20983;BME280;10650;51.528;6.748;2022-08-01T04:30:16;101423.94;;;20.74;90.55
20983;BME280;10650;51.528;6.748;2022-08-01T04:32:47;101426.94;;;20.66;90.67
20983;BME280;10650;51.528;6.748;2022-08-01T04:35:18;101425.91;;;20.70;90.54
20983;BME280;10650;51.528;6.748;2022-08-01T04:38:08;101432.28;;;20.69;91.00
20983;BME280;10650;51.528;6.748;2022-08-01T04:40:38;101437.81;;;20.66;90.25
20983;BME280;10650;51.528;6.748;2022-08-01T04:43:08;101436.88;;;20.67;89.42
20983;BME280;10650;51.528;6.748;2022-08-01T04:45:37;101435.16;;;20.65;88.91
20983;BME280;10650;51.528;6.748;2022-08-01T04:48:06;101441.78;;;20.57;89.07
20983;BME280;10650;51.528;6.748;2022-08-01T04:50:35;101441.94;;;20.53;89.14
20983;BME280;10650;51.528;6.748;2022-08-01T04:53:03;101443.59;;;20.57;88.81
20983;BME280;10650;51.528;6.748;2022-08-01T04:55:31;101442.59;;;20.60;88.69
20983;BME280;10650;51.528;6.748;2022-08-01T04:58:00;101441.44;;;20.67;88.84
20983;BME280;10650;51.528;6.748;2022-08-01T05:00:28;101447.38;;;20.77;88.54
20983;BME280;10650;51.528;6.748;2022-08-01T05:02:57;101444.53;;;20.80;88.19
20983;BME280;10650;51.528;6.748;2022-08-01T05:05:25;101448.13;;;20.80;88.53
20983;BME280;10650;51.528;6.748;2022-08-01T05:07:53;101459.38;;;20.71;87.85
20983;BME280;10650;51.528;6.748;2022-08-01T05:10:22;101461.59;;;20.60;87.50
20983;BME280;10650;51.528;6.748;2022-08-01T05:12:50;101456.78;;;20.68;87.59
20983;BME280;10650;51.528;6.748;2022-08-01T05:15:19;101462.91;;;20.73;87.20
20983;BME280;10650;51.528;6.748;2022-08-01T05:17:47;101463.88;;;20.72;86.87
20983;BME280;10650;51.528;6.748;2022-08-01T05:20:15;101465.97;;;20.64;85.82
20983;BME280;10650;51.528;6.748;2022-08-01T05:22:43;101473.25;;;20.62;85.98
20983;BME280;10650;51.528;6.748;2022-08-01T05:25:11;101463.38;;;20.61;85.35
20983;BME280;10650;51.528;6.748;2022-08-01T05:27:45;101463.72;;;20.51;85.55
20983;BME280;10650;51.528;6.748;2022-08-01T05:30:16;101471.78;;;20.53;85.78
20983;BME280;10650;51.528;6.748;2022-08-01T05:32:45;101472.09;;;20.69;86.35
20983;BME280;10650;51.528;6.748;2022-08-01T05:35:13;101474.78;;;20.70;85.00
20983;BME280;10650;51.528;6.748;2022-08-01T05:37:41;101480.25;;;20.69;84.91
20983;BME280;10650;51.528;6.748;2022-08-01T05:40:09;101473.53;;;20.79;85.02
20983;BME280;10650;51.528;6.748;2022-08-01T05:42:37;101473.97;;;20.90;85.25
20983;BME280;10650;51.528;6.748;2022-08-01T05:45:05;101472.72;;;20.99;85.26
20983;BME280;10650;51.528;6.748;2022-08-01T05:47:33;101476.09;;;21.04;84.95
20983;BME280;10650;51.528;6.748;2022-08-01T05:50:10;101476.25;;;21.01;84.46
20983;BME280;10650;51.528;6.748;2022-08-01T05:52:37;101476.88;;;21.08;84.59
20983;BME280;10650;51.528;6.748;2022-08-01T05:55:06;101478.59;;;21.11;84.09
20983;BME280;10650;51.528;6.748;2022-08-01T05:57:34;101472.97;;;21.15;84.14
20983;BME280;10650;51.528;6.748;2022-08-01T06:00:07;101474.47;;;21.22;84.15
20983;BME280;10650;51.528;6.748;2022-08-01T06:02:40;101472.56;;;21.24;83.39
20983;BME280;10650;51.528;6.748;2022-08-01T06:05:09;101477.00;;;21.27;83.42
20983;BME280;10650;51.528;6.748;2022-08-01T06:07:39;101476.84;;;21.30;83.28
20983;BME280;10650;51.528;6.748;2022-08-01T06:10:07;101475.91;;;21.31;82.56
20983;BME280;10650;51.528;6.748;2022-08-01T06:12:36;101475.97;;;21.30;82.47
20983;BME280;10650;51.528;6.748;2022-08-01T06:15:05;101481.97;;;21.38;82.63
20983;BME280;10650;51.528;6.748;2022-08-01T06:17:33;101484.16;;;21.50;82.53
20983;BME280;10650;51.528;6.748;2022-08-01T06:20:01;101473.88;;;21.58;82.06
20983;BME280;10650;51.528;6.748;2022-08-01T06:22:30;101481.75;;;21.65;81.55
20983;BME280;10650;51.528;6.748;2022-08-01T06:24:58;101477.94;;;21.69;81.03
20983;BME280;10650;51.528;6.748;2022-08-01T06:27:26;101479.72;;;21.70;80.61
20983;BME280;10650;51.528;6.748;2022-08-01T06:29:54;101485.84;;;21.75;80.28
20983;BME280;10650;51.528;6.748;2022-08-01T06:32:23;101483.66;;;21.83;80.13
20983;BME280;10650;51.528;6.748;2022-08-01T06:34:53;101479.06;;;21.85;79.35
20983;BME280;10650;51.528;6.748;2022-08-01T06:37:21;101478.41;;;21.99;80.28
20983;BME280;10650;51.528;6.748;2022-08-01T06:39:50;101479.19;;;22.22;79.91
20983;BME280;10650;51.528;6.748;2022-08-01T06:42:18;101483.81;;;22.40;79.43
20983;BME280;10650;51.528;6.748;2022-08-01T06:44:46;101487.78;;;22.52;78.34
20983;BME280;10650;51.528;6.748;2022-08-01T06:47:14;101483.66;;;22.43;76.71
20983;BME280;10650;51.528;6.748;2022-08-01T06:49:42;101477.28;;;22.44;77.61
20983;BME280;10650;51.528;6.748;2022-08-01T06:52:09;101483.91;;;22.58;77.68
20983;BME280;10650;51.528;6.748;2022-08-01T06:54:37;101484.63;;;22.80;77.13
20983;BME280;10650;51.528;6.748;2022-08-01T06:57:06;101486.34;;;22.64;75.51
20983;BME280;10650;51.528;6.748;2022-08-01T06:59:34;101481.69;;;22.66;75.49
20983;BME280;10650;51.528;6.748;2022-08-01T07:02:02;101486.25;;;22.85;75.93
20983;BME280;10650;51.528;6.748;2022-08-01T07:04:31;101490.69;;;22.87;74.70
20983;BME280;10650;51.528;6.748;2022-08-01T07:06:59;101496.19;;;22.86;75.48
20983;BME280;10650;51.528;6.748;2022-08-01T07:09:27;101491.72;;;22.85;75.26
20983;BME280;10650;51.528;6.748;2022-08-01T07:11:55;101492.50;;;22.87;75.13
20983;BME280;10650;51.528;6.748;2022-08-01T07:14:24;101484.91;;;22.93;75.07
20983;BME280;10650;51.528;6.748;2022-08-01T07:16:52;101486.38;;;23.01;74.70
20983;BME280;10650;51.528;6.748;2022-08-01T07:19:20;101490.31;;;23.14;74.43
20983;BME280;10650;51.528;6.748;2022-08-01T07:21:47;101487.13;;;23.23;73.65
20983;BME280;10650;51.528;6.748;2022-08-01T07:24:16;101493.06;;;23.31;72.65
20983;BME280;10650;51.528;6.748;2022-08-01T07:26:47;101483.84;;;23.34;73.29
20983;BME280;10650;51.528;6.748;2022-08-01T07:29:21;101481.50;;;23.26;72.58
20983;BME280;10650;51.528;6.748;2022-08-01T07:31:50;101492.25;;;23.29;73.55
20983;BME280;10650;51.528;6.748;2022-08-01T07:34:19;101488.97;;;23.23;72.09
20983;BME280;10650;51.528;6.748;2022-08-01T07:36:47;101491.69;;;23.23;73.19
20983;BME280;10650;51.528;6.748;2022-08-01T07:39:15;101488.22;;;23.19;72.83
20983;BME280;10650;51.528;6.748;2022-08-01T07:41:42;101497.59;;;23.13;73.29
20983;BME280;10650;51.528;6.748;2022-08-01T07:44:30;101497.59;;;23.13;73.33
20983;BME280;10650;51.528;6.748;2022-08-01T07:46:59;101502.81;;;23.18;73.40
20983;BME280;10650;51.528;6.748;2022-08-01T07:49:27;101505.69;;;23.15;72.69
20983;BME280;10650;51.528;6.748;2022-08-01T07:51:56;101499.03;;;23.21;72.02
20983;BME280;10650;51.528;6.748;2022-08-01T07:54:30;101506.19;;;23.23;71.82
20983;BME280;10650;51.528;6.748;2022-08-01T07:56:59;101495.72;;;23.33;71.96
20983;BME280;10650;51.528;6.748;2022-08-01T07:59:27;101503.66;;;23.38;70.98
20983;BME280;10650;51.528;6.748;2022-08-01T08:01:55;101506.59;;;23.15;70.83
20983;BME280;10650;51.528;6.748;2022-08-01T08:04:25;101506.19;;;23.04;71.04
20983;BME280;10650;51.528;6.748;2022-08-01T08:06:53;101514.72;;;22.96;71.55
20983;BME280;10650;51.528;6.748;2022-08-01T08:09:21;101513.53;;;23.02;71.74
20983;BME280;10650;51.528;6.748;2022-08-01T08:11:49;101515.19;;;22.87;71.21
20983;BME280;10650;51.528;6.748;2022-08-01T08:14:17;101516.44;;;22.80;71.86
20983;BME280;10650;51.528;6.748;2022-08-01T08:16:45;101524.16;;;22.89;71.90
20983;BME280;10650;51.528;6.748;2022-08-01T08:19:13;101510.41;;;23.11;71.74
20983;BME280;10650;51.528;6.748;2022-08-01T08:21:42;101516.22;;;23.23;70.77
20983;BME280;10650;51.528;6.748;2022-08-01T08:24:12;101510.03;;;23.19;69.67
20983;BME280;10650;51.528;6.748;2022-08-01T08:26:54;101516.78;;;23.29;70.38
20983;BME280;10650;51.528;6.748;2022-08-01T08:29:22;101517.28;;;23.38;69.16
20983;BME280;10650;51.528;6.748;2022-08-01T08:31:51;101521.63;;;23.42;69.73
20983;BME280;10650;51.528;6.748;2022-08-01T08:34:20;101522.50;;;23.42;68.47
20983;BME280;10650;51.528;6.748;2022-08-01T08:36:49;101525.56;;;23.54;69.58
20983;BME280;10650;51.528;6.748;2022-08-01T08:39:17;101523.22;;;23.46;68.60
20983;BME280;10650;51.528;6.748;2022-08-01T08:41:46;101525.97;;;23.46;67.90
20983;BME280;10650;51.528;6.748;2022-08-01T08:44:16;101522.31;;;23.45;67.52
20983;BME280;10650;51.528;6.748;2022-08-01T08:46:46;101523.81;;;23.70;67.93
20983;BME280;10650;51.528;6.748;2022-08-01T08:49:17;101522.88;;;23.89;67.83
20983;BME280;10650;51.528;6.748;2022-08-01T08:51:49;101521.53;;;23.97;67.01
20983;BME280;10650;51.528;6.748;2022-08-01T08:54:17;101523.81;;;24.05;67.57
20983;BME280;10650;51.528;6.748;2022-08-01T08:56:47;101521.59;;;23.96;66.71
20983;BME280;10650;51.528;6.748;2022-08-01T08:59:15;101515.81;;;24.02;67.08
20983;BME280;10650;51.528;6.748;2022-08-01T09:01:43;101517.34;;;23.90;65.69
20983;BME280;10650;51.528;6.748;2022-08-01T09:04:11;101517.66;;;24.01;65.98
20983;BME280;10650;51.528;6.748;2022-08-01T09:06:39;101512.56;;;24.29;65.09
20983;BME280;10650;51.528;6.748;2022-08-01T09:09:09;101521.16;;;24.55;64.10
20983;BME280;10650;51.528;6.748;2022-08-01T09:11:37;101522.22;;;24.52;62.92
20983;BME280;10650;51.528;6.748;2022-08-01T09:14:08;101520.78;;;24.45;61.98
20983;BME280;10650;51.528;6.748;2022-08-01T09:16:39;101532.16;;;24.19;62.14
20983;BME280;10650;51.528;6.748;2022-08-01T09:19:15;101523.13;;;24.01;61.96
20983;BME280;10650;51.528;6.748;2022-08-01T09:22:05;101536.97;;;23.97;62.33
20983;BME280;10650;51.528;6.748;2022-08-01T09:24:36;101528.63;;;24.17;62.59
20983;BME280;10650;51.528;6.748;2022-08-01T09:27:16;101540.25;;;24.39;62.65
20983;BME280;10650;51.528;6.748;2022-08-01T09:29:48;101532.97;;;24.55;61.70
20983;BME280;10650;51.528;6.748;2022-08-01T09:32:28;101534.53;;;24.77;61.52
20983;BME280;10650;51.528;6.748;2022-08-01T09:35:21;101547.91;;;24.48;61.74
20983;BME280;10650;51.528;6.748;2022-08-01T09:38:12;101548.34;;;24.40;63.02
20983;BME280;10650;51.528;6.748;2022-08-01T09:40:46;101545.25;;;24.30;62.84
20983;BME280;10650;51.528;6.748;2022-08-01T09:43:15;101557.75;;;24.34;62.86
20983;BME280;10650;51.528;6.748;2022-08-01T09:45:44;101563.34;;;24.49;62.84
20983;BME280;10650;51.528;6.748;2022-08-01T09:48:18;101569.19;;;24.59;62.08
20983;BME280;10650;51.528;6.748;2022-08-01T09:50:53;101563.34;;;24.31;61.16
20983;BME280;10650;51.528;6.748;2022-08-01T09:53:42;101567.47;;;24.40;61.99
20983;BME280;10650;51.528;6.748;2022-08-01T09:56:20;101559.88;;;24.63;62.43
20983;BME280;10650;51.528;6.748;2022-08-01T09:58:50;101557.13;;;24.96;61.69
20983;BME280;10650;51.528;6.748;2022-08-01T10:01:25;101566.38;;;25.10;60.54
20983;BME280;10650;51.528;6.748;2022-08-01T10:04:09;101557.97;;;25.13;60.19
20983;BME280;10650;51.528;6.748;2022-08-01T10:06:38;101555.78;;;25.19;59.31
20983;BME280;10650;51.528;6.748;2022-08-01T10:09:27;101560.44;;;25.17;58.35
20983;BME280;10650;51.528;6.748;2022-08-01T10:12:08;101557.13;;;25.12;58.58
20983;BME280;10650;51.528;6.748;2022-08-01T10:14:42;101555.69;;;25.05;60.03
20983;BME280;10650;51.528;6.748;2022-08-01T10:17:13;101563.28;;;25.00;59.90
20983;BME280;10650;51.528;6.748;2022-08-01T10:19:45;101558.72;;;24.67;59.84
20983;BME280;10650;51.528;6.748;2022-08-01T10:22:14;101557.53;;;24.55;60.34
20983;BME280;10650;51.528;6.748;2022-08-01T10:24:44;101556.69;;;24.37;60.68
20983;BME280;10650;51.528;6.748;2022-08-01T10:27:15;101564.31;;;24.48;61.12
20983;BME280;10650;51.528;6.748;2022-08-01T10:30:05;101558.50;;;24.54;60.82
20983;BME280;10650;51.528;6.748;2022-08-01T10:32:49;101564.44;;;24.29;60.54
20983;BME280;10650;51.528;6.748;2022-08-01T10:35:20;101558.81;;;24.32;61.97
20983;BME280;10650;51.528;6.748;2022-08-01T10:38:09;101566.56;;;24.40;62.03
20983;BME280;10650;51.528;6.748;2022-08-01T10:40:39;101572.97;;;24.56;61.54
20983;BME280;10650;51.528;6.748;2022-08-01T10:43:09;101574.25;;;24.66;61.22
20983;BME280;10650;51.528;6.748;2022-08-01T10:45:37;101573.69;;;24.60;60.47
20983;BME280;10650;51.528;6.748;2022-08-01T10:48:10;101568.03;;;24.80;61.45
20983;BME280;10650;51.528;6.748;2022-08-01T10:50:42;101560.53;;;25.00;60.38
20983;BME280;10650;51.528;6.748;2022-08-01T10:53:16;101561.44;;;25.00;60.53
20983;BME280;10650;51.528;6.748;2022-08-01T10:56:02;101571.72;;;24.79;59.41
20983;BME280;10650;51.528;6.748;2022-08-01T10:58:34;101568.28;;;24.58;59.95
20983;BME280;10650;51.528;6.748;2022-08-01T11:01:22;101565.72;;;24.73;60.50
20983;BME280;10650;51.528;6.748;2022-08-01T11:04:13;101563.31;;;24.66;60.14
20983;BME280;10650;51.528;6.748;2022-08-01T11:07:01;101560.53;;;24.84;59.87
20983;BME280;10650;51.528;6.748;2022-08-01T11:09:39;101561.25;;;25.03;59.85
20983;BME280;10650;51.528;6.748;2022-08-01T11:12:09;101564.69;;;25.07;58.42
20983;BME280;10650;51.528;6.748;2022-08-01T11:15:19;101558.97;;;25.28;58.32
20983;BME280;10650;51.528;6.748;2022-08-01T11:17:58;101560.63;;;25.30;58.77
20983;BME280;10650;51.528;6.748;2022-08-01T11:20:28;101556.84;;;25.33;57.47
20983;BME280;10650;51.528;6.748;2022-08-01T11:23:25;101565.59;;;24.92;58.04
20983;BME280;10650;51.528;6.748;2022-08-01T11:26:19;101565.31;;;25.12;58.23
20983;BME280;10650;51.528;6.748;2022-08-01T11:29:19;101551.28;;;25.50;59.10
20983;BME280;10650;51.528;6.748;2022-08-01T11:31:50;101548.09;;;25.58;57.57
20983;BME280;10650;51.528;6.748;2022-08-01T11:34:19;101549.63;;;25.48;56.82
20983;BME280;10650;51.528;6.748;2022-08-01T11:36:47;101547.28;;;25.56;56.80
20983;BME280;10650;51.528;6.748;2022-08-01T11:39:25;101546.63;;;25.52;55.94
20983;BME280;10650;51.528;6.748;2022-08-01T11:41:53;101543.69;;;25.55;55.98
20983;BME280;10650;51.528;6.748;2022-08-01T11:44:23;101540.00;;;25.56;55.10
20983;BME280;10650;51.528;6.748;2022-08-01T11:47:02;101540.47;;;25.63;55.44
20983;BME280;10650;51.528;6.748;2022-08-01T11:49:56;101541.72;;;25.73;54.80
20983;BME280;10650;51.528;6.748;2022-08-01T11:52:27;101536.69;;;25.66;54.85
20983;BME280;10650;51.528;6.748;2022-08-01T11:54:57;101544.34;;;25.75;55.38
20983;BME280;10650;51.528;6.748;2022-08-01T11:57:27;101543.22;;;25.63;55.20
20983;BME280;10650;51.528;6.748;2022-08-01T12:00:04;101545.22;;;25.29;55.80
20983;BME280;10650;51.528;6.748;2022-08-01T12:02:35;101551.75;;;25.11;56.43
20983;BME280;10650;51.528;6.748;2022-08-01T12:05:06;101552.34;;;25.00;57.24
20983;BME280;10650;51.528;6.748;2022-08-01T12:07:41;101558.75;;;24.83;57.56
20983;BME280;10650;51.528;6.748;2022-08-01T12:10:13;101556.84;;;25.01;58.03
20983;BME280;10650;51.528;6.748;2022-08-01T12:12:43;101561.34;;;25.02;57.08
20983;BME280;10650;51.528;6.748;2022-08-01T12:15:15;101563.91;;;25.05;56.53
20983;BME280;10650;51.528;6.748;2022-08-01T12:17:46;101560.97;;;25.24;56.22
20983;BME280;10650;51.528;6.748;2022-08-01T12:20:26;101552.38;;;25.48;55.80
20983;BME280;10650;51.528;6.748;2022-08-01T12:23:01;101554.09;;;25.65;55.35
20983;BME280;10650;51.528;6.748;2022-08-01T12:25:32;101550.75;;;25.90;54.88
20983;BME280;10650;51.528;6.748;2022-08-01T12:28:00;101546.94;;;26.23;54.62
20983;BME280;10650;51.528;6.748;2022-08-01T12:30:29;101542.63;;;26.19;54.32
20983;BME280;10650;51.528;6.748;2022-08-01T12:33:04;101549.97;;;26.18;54.11
20983;BME280;10650;51.528;6.748;2022-08-01T12:35:33;101548.53;;;25.97;54.53
20983;BME280;10650;51.528;6.748;2022-08-01T12:38:03;101546.91;;;25.78;55.03
20983;BME280;10650;51.528;6.748;2022-08-01T12:40:33;101557.03;;;25.76;55.75
20983;BME280;10650;51.528;6.748;2022-08-01T12:43:03;101551.03;;;25.85;56.51
20983;BME280;10650;51.528;6.748;2022-08-01T12:45:33;101549.22;;;25.70;55.30
20983;BME280;10650;51.528;6.748;2022-08-01T12:48:08;101555.69;;;25.83;55.11
20983;BME280;10650;51.528;6.748;2022-08-01T12:50:39;101548.72;;;25.94;54.63
20983;BME280;10650;51.528;6.748;2022-08-01T12:53:08;101548.25;;;26.01;53.91
20983;BME280;10650;51.528;6.748;2022-08-01T12:55:46;101552.50;;;26.21;54.16
20983;BME280;10650;51.528;6.748;2022-08-01T12:58:31;101549.06;;;26.03;52.48
20983;BME280;10650;51.528;6.748;2022-08-01T13:01:03;101556.88;;;25.79;52.56
20983;BME280;10650;51.528;6.748;2022-08-01T13:03:33;101563.22;;;25.80;53.05
20983;BME280;10650;51.528;6.748;2022-08-01T13:06:09;101562.16;;;25.82;53.00
20983;BME280;10650;51.528;6.748;2022-08-01T13:08:38;101552.00;;;25.54;54.28
20983;BME280;10650;51.528;6.748;2022-08-01T13:11:08;101556.50;;;25.55;55.14
20983;BME280;10650;51.528;6.748;2022-08-01T13:13:38;101559.38;;;25.68;55.55
20983;BME280;10650;51.528;6.748;2022-08-01T13:16:08;101560.81;;;25.59;55.36